Weather at Albatros Airfield

Public forecast

Using degrees Celsius for public forecast. Weather courtesy of forecast.io.

Closest aviation weather report (METAR) to Albatros Airfield

Closest report is Treviso Antonio Canova Airport, 7.6 nm (14.1 km) SSW.

2024/04/16 17:50 (retrieved 15 minutes ago)

LIPH 161750Z 07017KT 9999 BKN070 08/05 Q1003

Closest aviation forecast (TAF) to Albatros Airfield

Closest forecast is Treviso Antonio Canova Airport, 7.6 nm (14.1 km) SSW.

2024/04/16 18:21 (retrieved 0 seconds ago)

TAF LIPH 161700Z 1618/1718 06015KT 9999 SCT020 BECMG 1619/1621 VRB05KT TEMPO 1712/1718 SHRA